sensor_id;sensor_type;location;lat;lon;timestamp;temperature;humidity
14397;DHT22;50653;47.810;13.022;2023-07-20T00:01:04;20.00;99.90
14397;DHT22;50653;47.810;13.022;2023-07-20T00:03:29;20.00;99.90
14397;DHT22;50653;47.810;13.022;2023-07-20T00:05:55;20.00;99.90
14397;DHT22;50653;47.810;13.022;2023-07-20T00:08:21;19.90;99.90
14397;DHT22;50653;47.810;13.022;2023-07-20T00:10:46;20.00;99.90
14397;DHT22;50653;47.810;13.022;2023-07-20T00:13:12;20.00;99.90
14397;DHT22;50653;47.810;13.022;2023-07-20T00:15:38;19.90;99.90
14397;DHT22;50653;47.810;13.022;2023-07-20T00:18:04;19.90;99.90
14397;DHT22;50653;47.810;13.022;2023-07-20T00:20:30;19.80;99.90
14397;DHT22;50653;47.810;13.022;2023-07-20T00:22:56;19.80;99.90
14397;DHT22;50653;47.810;13.022;2023-07-20T00:25:23;19.80;99.90
14397;DHT22;50653;47.810;13.022;2023-07-20T00:27:49;19.70;99.90
14397;DHT22;50653;47.810;13.022;2023-07-20T00:30:15;19.80;99.90
14397;DHT22;50653;47.810;13.022;2023-07-20T00:32:43;19.70;99.90
14397;DHT22;50653;47.810;13.022;2023-07-20T00:35:09;19.80;99.90
14397;DHT22;50653;47.810;13.022;2023-07-20T00:37:36;19.80;99.90
14397;DHT22;50653;47.810;13.022;2023-07-20T00:40:02;19.70;99.90
14397;DHT22;50653;47.810;13.022;2023-07-20T00:42:30;19.80;99.90
14397;DHT22;50653;47.810;13.022;2023-07-20T00:44:55;19.50;99.90
14397;DHT22;50653;47.810;13.022;2023-07-20T00:47:21;19.60;99.90
14397;DHT22;50653;47.810;13.022;2023-07-20T00:49:47;19.20;99.90
14397;DHT22;50653;47.810;13.022;2023-07-20T00:52:14;19.50;99.90
14397;DHT22;50653;47.810;13.022;2023-07-20T00:54:42;19.50;99.90
14397;DHT22;50653;47.810;13.022;2023-07-20T00:57:08;19.60;99.90
14397;DHT22;50653;47.810;13.022;2023-07-20T00:59:35;19.80;99.90
14397;DHT22;50653;47.810;13.022;2023-07-20T01:02:02;19.80;99.90
14397;DHT22;50653;47.810;13.022;2023-07-20T01:04:28;19.70;99.90
14397;DHT22;50653;47.810;13.022;2023-07-20T01:07:14;19.80;99.90
14397;DHT22;50653;47.810;13.022;2023-07-20T01:10:09;19.50;99.90
14397;DHT22;50653;47.810;13.022;2023-07-20T01:12:47;19.30;99.90
14397;DHT22;50653;47.810;13.022;2023-07-20T01:15:13;19.40;99.90
14397;DHT22;50653;47.810;13.022;2023-07-20T01:17:39;19.40;99.90
14397;DHT22;50653;47.810;13.022;2023-07-20T01:20:08;19.40;99.90
14397;DHT22;50653;47.810;13.022;2023-07-20T01:33:44;19.30;99.90
14397;DHT22;50653;47.810;13.022;2023-07-20T01:36:11;19.20;99.90
14397;DHT22;50653;47.810;13.022;2023-07-20T01:38:38;19.30;99.90
14397;DHT22;50653;47.810;13.022;2023-07-20T01:41:04;19.30;99.90
14397;DHT22;50653;47.810;13.022;2023-07-20T01:43:30;19.30;99.90
14397;DHT22;50653;47.810;13.022;2023-07-20T01:45:56;19.30;99.90
14397;DHT22;50653;47.810;13.022;2023-07-20T01:48:21;19.20;99.90
14397;DHT22;50653;47.810;13.022;2023-07-20T01:50:47;19.40;99.90
14397;DHT22;50653;47.810;13.022;2023-07-20T01:53:14;19.40;99.90
14397;DHT22;50653;47.810;13.022;2023-07-20T01:55:40;19.30;99.90
14397;DHT22;50653;47.810;13.022;2023-07-20T01:58:06;19.20;99.90
14397;DHT22;50653;47.810;13.022;2023-07-20T02:00:32;19.30;99.90
14397;DHT22;50653;47.810;13.022;2023-07-20T02:02:57;19.40;99.90
14397;DHT22;50653;47.810;13.022;2023-07-20T02:05:23;19.40;99.90
14397;DHT22;50653;47.810;13.022;2023-07-20T02:07:49;19.50;99.90
14397;DHT22;50653;47.810;13.022;2023-07-20T02:10:19;19.60;99.90
14397;DHT22;50653;47.810;13.022;2023-07-20T02:12:44;19.50;99.90
14397;DHT22;50653;47.810;13.022;2023-07-20T02:15:10;19.50;99.90
14397;DHT22;50653;47.810;13.022;2023-07-20T02:17:36;19.40;99.90
14397;DHT22;50653;47.810;13.022;2023-07-20T02:20:03;19.30;99.90
14397;DHT22;50653;47.810;13.022;2023-07-20T02:22:30;19.30;99.90
14397;DHT22;50653;47.810;13.022;2023-07-20T02:24:55;19.30;99.90
14397;DHT22;50653;47.810;13.022;2023-07-20T02:27:21;19.20;99.90
14397;DHT22;50653;47.810;13.022;2023-07-20T02:29:47;19.10;99.90
14397;DHT22;50653;47.810;13.022;2023-07-20T02:32:12;19.20;99.90
14397;DHT22;50653;47.810;13.022;2023-07-20T02:34:38;19.20;99.90
14397;DHT22;50653;47.810;13.022;2023-07-20T02:37:04;19.30;99.90
14397;DHT22;50653;47.810;13.022;2023-07-20T02:39:30;19.30;99.90
14397;DHT22;50653;47.810;13.022;2023-07-20T02:41:56;19.10;99.90
14397;DHT22;50653;47.810;13.022;2023-07-20T02:44:21;18.90;99.90
14397;DHT22;50653;47.810;13.022;2023-07-20T02:46:47;19.00;99.90
14397;DHT22;50653;47.810;13.022;2023-07-20T02:49:15;19.10;99.90
14397;DHT22;50653;47.810;13.022;2023-07-20T02:51:42;19.10;99.90
14397;DHT22;50653;47.810;13.022;2023-07-20T02:54:08;19.20;99.90
14397;DHT22;50653;47.810;13.022;2023-07-20T02:56:33;19.30;99.90
14397;DHT22;50653;47.810;13.022;2023-07-20T02:59:01;19.10;99.90
14397;DHT22;50653;47.810;13.022;2023-07-20T03:01:27;19.20;99.90
14397;DHT22;50653;47.810;13.022;2023-07-20T03:03:55;18.90;99.90
14397;DHT22;50653;47.810;13.022;2023-07-20T03:06:21;19.10;99.90
14397;DHT22;50653;47.810;13.022;2023-07-20T03:08:47;19.10;99.90
14397;DHT22;50653;47.810;13.022;2023-07-20T03:11:17;19.00;99.90
14397;DHT22;50653;47.810;13.022;2023-07-20T03:13:44;19.00;99.90
14397;DHT22;50653;47.810;13.022;2023-07-20T03:16:11;18.90;99.90
14397;DHT22;50653;47.810;13.022;2023-07-20T03:18:38;18.80;99.90
14397;DHT22;50653;47.810;13.022;2023-07-20T03:21:05;18.80;99.90
14397;DHT22;50653;47.810;13.022;2023-07-20T03:23:31;19.00;99.90
14397;DHT22;50653;47.810;13.022;2023-07-20T03:25:57;19.00;99.90
14397;DHT22;50653;47.810;13.022;2023-07-20T03:28:23;19.00;99.90
14397;DHT22;50653;47.810;13.022;2023-07-20T03:30:56;18.90;99.90
14397;DHT22;50653;47.810;13.022;2023-07-20T03:33:25;19.10;99.90
14397;DHT22;50653;47.810;13.022;2023-07-20T03:35:51;19.20;99.90
14397;DHT22;50653;47.810;13.022;2023-07-20T03:38:17;19.10;99.90
14397;DHT22;50653;47.810;13.022;2023-07-20T03:41:09;19.10;99.90
14397;DHT22;50653;47.810;13.022;2023-07-20T03:43:34;19.10;99.90
14397;DHT22;50653;47.810;13.022;2023-07-20T03:46:00;19.50;99.90
14397;DHT22;50653;47.810;13.022;2023-07-20T03:48:26;19.20;99.90
14397;DHT22;50653;47.810;13.022;2023-07-20T03:50:53;19.20;99.90
14397;DHT22;50653;47.810;13.022;2023-07-20T03:53:19;19.30;99.90
14397;DHT22;50653;47.810;13.022;2023-07-20T03:55:49;19.30;99.90
14397;DHT22;50653;47.810;13.022;2023-07-20T03:58:15;19.30;99.90
14397;DHT22;50653;47.810;13.022;2023-07-20T04:00:49;19.10;99.90
14397;DHT22;50653;47.810;13.022;2023-07-20T04:03:18;19.10;99.90
14397;DHT22;50653;47.810;13.022;2023-07-20T04:05:44;19.20;99.90
14397;DHT22;50653;47.810;13.022;2023-07-20T04:08:11;19.30;99.90
14397;DHT22;50653;47.810;13.022;2023-07-20T04:10:37;19.30;99.90
14397;DHT22;50653;47.810;13.022;2023-07-20T04:13:03;19.20;99.90
14397;DHT22;50653;47.810;13.022;2023-07-20T04:15:29;19.20;99.90
14397;DHT22;50653;47.810;13.022;2023-07-20T04:17:55;18.70;99.90
14397;DHT22;50653;47.810;13.022;2023-07-20T04:20:25;18.60;99.90
14397;DHT22;50653;47.810;13.022;2023-07-20T04:22:50;18.80;99.90
14397;DHT22;50653;47.810;13.022;2023-07-20T04:25:18;19.00;99.90
14397;DHT22;50653;47.810;13.022;2023-07-20T04:27:43;19.00;99.90
14397;DHT22;50653;47.810;13.022;2023-07-20T04:30:11;19.00;99.90
14397;DHT22;50653;47.810;13.022;2023-07-20T04:32:38;19.10;99.90
14397;DHT22;50653;47.810;13.022;2023-07-20T04:35:07;19.10;99.90
14397;DHT22;50653;47.810;13.022;2023-07-20T04:37:39;19.00;99.90
14397;DHT22;50653;47.810;13.022;2023-07-20T04:40:15;18.80;99.90
14397;DHT22;50653;47.810;13.022;2023-07-20T04:42:41;18.70;99.90
14397;DHT22;50653;47.810;13.022;2023-07-20T04:45:07;18.80;99.90
14397;DHT22;50653;47.810;13.022;2023-07-20T04:47:33;18.90;99.90
14397;DHT22;50653;47.810;13.022;2023-07-20T04:49:58;19.00;99.90
14397;DHT22;50653;47.810;13.022;2023-07-20T04:52:24;18.80;99.90
14397;DHT22;50653;47.810;13.022;2023-07-20T04:54:50;18.90;99.90
14397;DHT22;50653;47.810;13.022;2023-07-20T04:57:16;18.70;99.90
14397;DHT22;50653;47.810;13.022;2023-07-20T04:59:47;18.80;99.90
14397;DHT22;50653;47.810;13.022;2023-07-20T05:02:13;18.90;99.90
14397;DHT22;50653;47.810;13.022;2023-07-20T05:04:39;19.00;99.90
14397;DHT22;50653;47.810;13.022;2023-07-20T05:07:05;19.00;99.90
14397;DHT22;50653;47.810;13.022;2023-07-20T05:09:31;18.40;99.90
14397;DHT22;50653;47.810;13.022;2023-07-20T05:11:58;18.50;99.90
14397;DHT22;50653;47.810;13.022;2023-07-20T05:14:27;18.40;99.90
14397;DHT22;50653;47.810;13.022;2023-07-20T05:16:54;18.50;99.90
14397;DHT22;50653;47.810;13.022;2023-07-20T05:19:19;18.60;99.90
14397;DHT22;50653;47.810;13.022;2023-07-20T05:21:45;18.60;99.90
14397;DHT22;50653;47.810;13.022;2023-07-20T13:25:07;23.70;84.10
14397;DHT22;50653;47.810;13.022;2023-07-20T13:27:33;23.60;82.50
14397;DHT22;50653;47.810;13.022;2023-07-20T13:30:00;23.90;86.90
14397;DHT22;50653;47.810;13.022;2023-07-20T13:32:26;24.20;82.50
14397;DHT22;50653;47.810;13.022;2023-07-20T13:34:52;24.40;82.30
14397;DHT22;50653;47.810;13.022;2023-07-20T13:37:18;24.10;82.00
14397;DHT22;50653;47.810;13.022;2023-07-20T13:39:44;24.20;84.80
14397;DHT22;50653;47.810;13.022;2023-07-20T13:42:10;24.40;84.70
14397;DHT22;50653;47.810;13.022;2023-07-20T13:44:37;24.40;83.60
14397;DHT22;50653;47.810;13.022;2023-07-20T13:47:03;24.40;82.40
14397;DHT22;50653;47.810;13.022;2023-07-20T13:49:31;24.10;79.90
14397;DHT22;50653;47.810;13.022;2023-07-20T13:51:58;23.70;80.20
14397;DHT22;50653;47.810;13.022;2023-07-20T13:54:24;23.60;81.70
14397;DHT22;50653;47.810;13.022;2023-07-20T13:56:50;24.00;81.50
14397;DHT22;50653;47.810;13.022;2023-07-20T13:59:16;24.10;81.90
14397;DHT22;50653;47.810;13.022;2023-07-20T14:01:41;24.20;83.10
14397;DHT22;50653;47.810;13.022;2023-07-20T14:04:08;24.10;82.10
14397;DHT22;50653;47.810;13.022;2023-07-20T14:06:35;24.00;79.60
14397;DHT22;50653;47.810;13.022;2023-07-20T14:09:01;23.80;78.60
14397;DHT22;50653;47.810;13.022;2023-07-20T14:11:27;24.30;81.20
14397;DHT22;50653;47.810;13.022;2023-07-20T14:13:53;24.10;79.50
14397;DHT22;50653;47.810;13.022;2023-07-20T14:16:20;24.00;81.10
14397;DHT22;50653;47.810;13.022;2023-07-20T14:18:45;23.80;78.50
14397;DHT22;50653;47.810;13.022;2023-07-20T14:21:19;24.10;81.40
14397;DHT22;50653;47.810;13.022;2023-07-20T14:23:46;24.10;81.40
14397;DHT22;50653;47.810;13.022;2023-07-20T14:26:13;24.10;84.20
14397;DHT22;50653;47.810;13.022;2023-07-20T14:28:38;24.30;82.30
14397;DHT22;50653;47.810;13.022;2023-07-20T14:31:04;24.70;81.80
14397;DHT22;50653;47.810;13.022;2023-07-20T14:33:30;24.90;80.10
14397;DHT22;50653;47.810;13.022;2023-07-20T14:35:56;24.60;82.20
14397;DHT22;50653;47.810;13.022;2023-07-20T14:38:22;24.50;81.00
14397;DHT22;50653;47.810;13.022;2023-07-20T14:40:47;24.80;81.50
14397;DHT22;50653;47.810;13.022;2023-07-20T14:43:13;25.00;82.00
14397;DHT22;50653;47.810;13.022;2023-07-20T14:45:40;24.60;80.10
14397;DHT22;50653;47.810;13.022;2023-07-20T14:48:06;24.60;81.80
14397;DHT22;50653;47.810;13.022;2023-07-20T14:50:33;24.80;82.70
14397;DHT22;50653;47.810;13.022;2023-07-20T14:52:58;24.80;82.30
14397;DHT22;50653;47.810;13.022;2023-07-20T14:55:25;24.90;81.70
14397;DHT22;50653;47.810;13.022;2023-07-20T14:57:50;25.10;82.00
14397;DHT22;50653;47.810;13.022;2023-07-20T15:00:16;25.20;81.50
14397;DHT22;50653;47.810;13.022;2023-07-20T15:02:42;25.30;81.90
14397;DHT22;50653;47.810;13.022;2023-07-20T15:05:10;25.10;79.90
14397;DHT22;50653;47.810;13.022;2023-07-20T15:07:37;25.20;80.20
14397;DHT22;50653;47.810;13.022;2023-07-20T15:10:03;25.10;80.10
14397;DHT22;50653;47.810;13.022;2023-07-20T15:12:30;25.20;81.80
14397;DHT22;50653;47.810;13.022;2023-07-20T15:15:09;25.50;81.70
14397;DHT22;50653;47.810;13.022;2023-07-20T15:17:36;25.90;80.10
14397;DHT22;50653;47.810;13.022;2023-07-20T15:20:04;26.10;80.00
14397;DHT22;50653;47.810;13.022;2023-07-20T15:22:31;26.10;80.80
14397;DHT22;50653;47.810;13.022;2023-07-20T15:24:57;26.50;79.60
14397;DHT22;50653;47.810;13.022;2023-07-20T15:27:23;26.60;78.30
14397;DHT22;50653;47.810;13.022;2023-07-20T15:29:49;26.60;76.70
14397;DHT22;50653;47.810;13.022;2023-07-20T15:32:15;26.50;75.50
14397;DHT22;50653;47.810;13.022;2023-07-20T15:34:42;26.40;74.10
14397;DHT22;50653;47.810;13.022;2023-07-20T15:37:09;26.60;73.40
14397;DHT22;50653;47.810;13.022;2023-07-20T15:39:36;26.40;73.90
14397;DHT22;50653;47.810;13.022;2023-07-20T15:42:01;26.00;75.20
14397;DHT22;50653;47.810;13.022;2023-07-20T15:44:27;25.10;76.90
14397;DHT22;50653;47.810;13.022;2023-07-20T15:46:52;25.10;78.10
14397;DHT22;50653;47.810;13.022;2023-07-20T15:49:18;25.40;77.80
14397;DHT22;50653;47.810;13.022;2023-07-20T15:51:44;25.50;77.90
14397;DHT22;50653;47.810;13.022;2023-07-20T15:54:12;25.60;77.50
14397;DHT22;50653;47.810;13.022;2023-07-20T15:56:39;25.40;76.80
14397;DHT22;50653;47.810;13.022;2023-07-20T15:59:06;25.30;76.40
14397;DHT22;50653;47.810;13.022;2023-07-20T16:01:32;25.60;75.40
14397;DHT22;50653;47.810;13.022;2023-07-20T16:03:58;25.20;73.90
14397;DHT22;50653;47.810;13.022;2023-07-20T16:06:24;25.50;75.30
14397;DHT22;50653;47.810;13.022;2023-07-20T16:08:50;25.70;74.90
14397;DHT22;50653;47.810;13.022;2023-07-20T16:11:17;25.80;75.50
14397;DHT22;50653;47.810;13.022;2023-07-20T16:13:43;25.80;74.40
14397;DHT22;50653;47.810;13.022;2023-07-20T16:16:10;26.20;74.40
14397;DHT22;50653;47.810;13.022;2023-07-20T16:18:36;26.60;74.10
14397;DHT22;50653;47.810;13.022;2023-07-20T16:21:02;26.80;74.00
14397;DHT22;50653;47.810;13.022;2023-07-20T16:23:27;26.70;72.70
14397;DHT22;50653;47.810;13.022;2023-07-20T16:25:53;26.60;73.10
14397;DHT22;50653;47.810;13.022;2023-07-20T16:28:19;26.40;73.40
14397;DHT22;50653;47.810;13.022;2023-07-20T16:30:44;26.30;72.60
14397;DHT22;50653;47.810;13.022;2023-07-20T16:33:10;26.10;73.50
14397;DHT22;50653;47.810;13.022;2023-07-20T16:35:39;26.00;74.10
14397;DHT22;50653;47.810;13.022;2023-07-20T16:38:06;26.00;75.50
14397;DHT22;50653;47.810;13.022;2023-07-20T16:40:32;25.90;76.80
14397;DHT22;50653;47.810;13.022;2023-07-20T16:42:57;25.60;76.20
14397;DHT22;50653;47.810;13.022;2023-07-20T16:45:23;25.40;77.00
14397;DHT22;50653;47.810;13.022;2023-07-20T16:47:49;25.30;77.10
14397;DHT22;50653;47.810;13.022;2023-07-20T16:50:14;25.40;76.50
14397;DHT22;50653;47.810;13.022;2023-07-20T16:52:40;25.30;77.00
14397;DHT22;50653;47.810;13.022;2023-07-20T16:55:06;25.40;77.50
14397;DHT22;50653;47.810;13.022;2023-07-20T16:57:32;25.40;77.30
14397;DHT22;50653;47.810;13.022;2023-07-20T16:59:58;25.20;76.80
14397;DHT22;50653;47.810;13.022;2023-07-20T17:02:24;25.10;77.60
14397;DHT22;50653;47.810;13.022;2023-07-20T17:04:49;24.80;78.00
14397;DHT22;50653;47.810;13.022;2023-07-20T17:07:15;24.90;79.10
14397;DHT22;50653;47.810;13.022;2023-07-20T17:09:42;24.90;78.90
14397;DHT22;50653;47.810;13.022;2023-07-20T17:12:08;24.80;79.40
14397;DHT22;50653;47.810;13.022;2023-07-20T17:14:34;24.70;79.50
14397;DHT22;50653;47.810;13.022;2023-07-20T17:17:01;24.70;80.70
14397;DHT22;50653;47.810;13.022;2023-07-20T17:19:27;24.70;81.30
14397;DHT22;50653;47.810;13.022;2023-07-20T17:21:53;24.80;80.80
14397;DHT22;50653;47.810;13.022;2023-07-20T17:24:18;24.60;81.20
14397;DHT22;50653;47.810;13.022;2023-07-20T17:26:44;24.60;81.20
14397;DHT22;50653;47.810;13.022;2023-07-20T17:29:10;24.50;81.30
14397;DHT22;50653;47.810;13.022;2023-07-20T17:31:36;24.50;82.00
14397;DHT22;50653;47.810;13.022;2023-07-20T17:34:02;24.30;81.80
14397;DHT22;50653;47.810;13.022;2023-07-20T17:36:28;24.50;82.30
14397;DHT22;50653;47.810;13.022;2023-07-20T17:38:54;24.70;81.30
14397;DHT22;50653;47.810;13.022;2023-07-20T17:41:20;24.40;82.40
14397;DHT22;50653;47.810;13.022;2023-07-20T17:43:47;24.40;82.30
14397;DHT22;50653;47.810;13.022;2023-07-20T17:46:13;24.30;82.20
14397;DHT22;50653;47.810;13.022;2023-07-20T17:48:38;24.10;83.00
14397;DHT22;50653;47.810;13.022;2023-07-20T17:51:04;24.10;83.10
14397;DHT22;50653;47.810;13.022;2023-07-20T17:53:30;24.30;83.50
14397;DHT22;50653;47.810;13.022;2023-07-20T17:55:55;24.10;83.40
14397;DHT22;50653;47.810;13.022;2023-07-20T17:58:21;24.00;84.40
14397;DHT22;50653;47.810;13.022;2023-07-20T18:00:47;24.10;84.40
14397;DHT22;50653;47.810;13.022;2023-07-20T18:03:12;24.20;84.10
14397;DHT22;50653;47.810;13.022;2023-07-20T18:05:38;24.20;84.00
14397;DHT22;50653;47.810;13.022;2023-07-20T18:08:04;24.30;84.20
14397;DHT22;50653;47.810;13.022;2023-07-20T18:10:30;23.90;84.80
14397;DHT22;50653;47.810;13.022;2023-07-20T18:12:55;23.80;85.50
14397;DHT22;50653;47.810;13.022;2023-07-20T18:15:21;23.80;85.70
14397;DHT22;50653;47.810;13.022;2023-07-20T18:17:47;23.80;86.10
14397;DHT22;50653;47.810;13.022;2023-07-20T18:20:13;23.60;87.40
14397;DHT22;50653;47.810;13.022;2023-07-20T18:22:38;23.50;87.50
14397;DHT22;50653;47.810;13.022;2023-07-20T18:25:04;23.40;88.20
14397;DHT22;50653;47.810;13.022;2023-07-20T18:27:31;23.50;88.70
14397;DHT22;50653;47.810;13.022;2023-07-20T18:29:57;23.70;88.60
14397;DHT22;50653;47.810;13.022;2023-07-20T18:32:23;23.70;88.20
14397;DHT22;50653;47.810;13.022;2023-07-20T18:34:48;23.50;88.20
14397;DHT22;50653;47.810;13.022;2023-07-20T18:37:14;23.30;88.90
14397;DHT22;50653;47.810;13.022;2023-07-20T18:39:45;23.30;89.30
14397;DHT22;50653;47.810;13.022;2023-07-20T18:42:11;23.40;88.90
14397;DHT22;50653;47.810;13.022;2023-07-20T18:44:37;23.30;89.50
14397;DHT22;50653;47.810;13.022;2023-07-20T18:47:02;23.10;90.10
14397;DHT22;50653;47.810;13.022;2023-07-20T18:49:28;23.00;90.30
14397;DHT22;50653;47.810;13.022;2023-07-20T18:51:55;23.00;90.20
14397;DHT22;50653;47.810;13.022;2023-07-20T18:54:20;23.10;90.30
14397;DHT22;50653;47.810;13.022;2023-07-20T18:56:46;23.00;90.40
14397;DHT22;50653;47.810;13.022;2023-07-20T18:59:12;22.90;90.60
14397;DHT22;50653;47.810;13.022;2023-07-20T19:01:38;22.90;90.70
14397;DHT22;50653;47.810;13.022;2023-07-20T19:04:03;22.80;91.00
14397;DHT22;50653;47.810;13.022;2023-07-20T19:06:29;22.60;91.20
14397;DHT22;50653;47.810;13.022;2023-07-20T19:08:55;22.70;91.30
14397;DHT22;50653;47.810;13.022;2023-07-20T19:11:21;22.60;91.50
14397;DHT22;50653;47.810;13.022;2023-07-20T19:13:47;22.50;91.30
14397;DHT22;50653;47.810;13.022;2023-07-20T19:16:12;22.50;91.60
14397;DHT22;50653;47.810;13.022;2023-07-20T19:18:38;22.40;91.90
14397;DHT22;50653;47.810;13.022;2023-07-20T19:21:06;22.50;91.70
14397;DHT22;50653;47.810;13.022;2023-07-20T19:23:32;22.30;92.00
14397;DHT22;50653;47.810;13.022;2023-07-20T19:26:10;22.30;92.20
14397;DHT22;50653;47.810;13.022;2023-07-20T19:28:36;22.30;92.10
14397;DHT22;50653;47.810;13.022;2023-07-20T19:31:03;22.20;92.20
14397;DHT22;50653;47.810;13.022;2023-07-20T19:33:28;22.10;92.20
14397;DHT22;50653;47.810;13.022;2023-07-20T19:35:58;22.00;92.50
14397;DHT22;50653;47.810;13.022;2023-07-20T19:38:24;22.00;92.30
14397;DHT22;50653;47.810;13.022;2023-07-20T19:40:50;22.00;92.50
14397;DHT22;50653;47.810;13.022;2023-07-20T19:43:16;22.00;92.40
14397;DHT22;50653;47.810;13.022;2023-07-20T19:45:43;21.90;92.80
14397;DHT22;50653;47.810;13.022;2023-07-20T19:48:08;21.90;93.10
14397;DHT22;50653;47.810;13.022;2023-07-20T19:50:34;21.70;93.80
14397;DHT22;50653;47.810;13.022;2023-07-20T19:53:01;21.60;94.20
14397;DHT22;50653;47.810;13.022;2023-07-20T19:55:26;21.80;94.20
14397;DHT22;50653;47.810;13.022;2023-07-20T19:57:53;21.80;94.30
14397;DHT22;50653;47.810;13.022;2023-07-20T20:00:19;21.80;94.40
14397;DHT22;50653;47.810;13.022;2023-07-20T20:02:46;21.70;94.70
14397;DHT22;50653;47.810;13.022;2023-07-20T20:05:12;21.70;95.00
14397;DHT22;50653;47.810;13.022;2023-07-20T20:07:37;21.70;95.30
14397;DHT22;50653;47.810;13.022;2023-07-20T20:10:04;21.60;95.50
14397;DHT22;50653;47.810;13.022;2023-07-20T20:12:30;21.60;95.60
14397;DHT22;50653;47.810;13.022;2023-07-20T20:14:56;21.60;95.90
14397;DHT22;50653;47.810;13.022;2023-07-20T20:17:22;21.30;96.50
14397;DHT22;50653;47.810;13.022;2023-07-20T20:19:48;21.40;96.80
14397;DHT22;50653;47.810;13.022;2023-07-20T20:22:17;21.50;96.90
14397;DHT22;50653;47.810;13.022;2023-07-20T20:24:43;21.50;97.20
14397;DHT22;50653;47.810;13.022;2023-07-20T20:27:09;21.50;97.40
14397;DHT22;50653;47.810;13.022;2023-07-20T20:29:35;21.50;97.60
14397;DHT22;50653;47.810;13.022;2023-07-20T20:32:02;21.40;98.40
14397;DHT22;50653;47.810;13.022;2023-07-20T20:34:28;21.40;98.50
14397;DHT22;50653;47.810;13.022;2023-07-20T20:36:54;21.40;98.90
14397;DHT22;50653;47.810;13.022;2023-07-20T20:39:25;21.30;99.30
14397;DHT22;50653;47.810;13.022;2023-07-20T20:41:51;21.30;99.90
14397;DHT22;50653;47.810;13.022;2023-07-20T20:44:17;21.20;99.90
14397;DHT22;50653;47.810;13.022;2023-07-20T20:46:48;21.10;99.90
14397;DHT22;50653;47.810;13.022;2023-07-20T20:49:14;21.00;99.90
14397;DHT22;50653;47.810;13.022;2023-07-20T20:51:41;21.00;99.90
14397;DHT22;50653;47.810;13.022;2023-07-20T20:54:08;21.00;99.90
14397;DHT22;50653;47.810;13.022;2023-07-20T20:56:35;21.00;99.90
14397;DHT22;50653;47.810;13.022;2023-07-20T20:59:00;21.00;99.90
14397;DHT22;50653;47.810;13.022;2023-07-20T21:01:26;20.90;99.90
14397;DHT22;50653;47.810;13.022;2023-07-20T21:03:52;20.90;99.90
14397;DHT22;50653;47.810;13.022;2023-07-20T21:06:18;20.80;99.90
14397;DHT22;50653;47.810;13.022;2023-07-20T21:08:44;20.70;99.90
14397;DHT22;50653;47.810;13.022;2023-07-20T21:11:10;20.70;99.90
14397;DHT22;50653;47.810;13.022;2023-07-20T21:13:36;20.60;99.90
14397;DHT22;50653;47.810;13.022;2023-07-20T21:16:02;20.40;99.90
14397;DHT22;50653;47.810;13.022;2023-07-20T21:18:28;20.50;99.90
14397;DHT22;50653;47.810;13.022;2023-07-20T21:20:54;20.50;99.90
14397;DHT22;50653;47.810;13.022;2023-07-20T21:23:20;20.60;99.90
14397;DHT22;50653;47.810;13.022;2023-07-20T21:25:46;20.50;99.90
14397;DHT22;50653;47.810;13.022;2023-07-20T21:28:12;20.50;99.90
14397;DHT22;50653;47.810;13.022;2023-07-20T21:30:37;20.50;99.90
14397;DHT22;50653;47.810;13.022;2023-07-20T21:33:03;20.50;99.90
14397;DHT22;50653;47.810;13.022;2023-07-20T21:35:28;20.40;99.90
14397;DHT22;50653;47.810;13.022;2023-07-20T21:37:54;20.30;99.90
14397;DHT22;50653;47.810;13.022;2023-07-20T21:40:20;20.30;99.90
14397;DHT22;50653;47.810;13.022;2023-07-20T21:42:46;20.20;99.90
14397;DHT22;50653;47.810;13.022;2023-07-20T21:45:11;20.20;99.90
14397;DHT22;50653;47.810;13.022;2023-07-20T21:47:37;20.10;99.90
14397;DHT22;50653;47.810;13.022;2023-07-20T21:50:03;20.20;99.90
14397;DHT22;50653;47.810;13.022;2023-07-20T21:52:29;20.10;99.90
14397;DHT22;50653;47.810;13.022;2023-07-20T21:54:54;20.20;99.90
14397;DHT22;50653;47.810;13.022;2023-07-20T21:57:20;20.10;99.90
14397;DHT22;50653;47.810;13.022;2023-07-20T21:59:46;20.10;99.90
14397;DHT22;50653;47.810;13.022;2023-07-20T22:02:12;20.20;99.90
14397;DHT22;50653;47.810;13.022;2023-07-20T22:04:37;19.90;99.90
14397;DHT22;50653;47.810;13.022;2023-07-20T22:07:03;20.00;99.90
14397;DHT22;50653;47.810;13.022;2023-07-20T22:09:42;19.70;99.90
14397;DHT22;50653;47.810;13.022;2023-07-20T22:12:11;19.80;99.90
14397;DHT22;50653;47.810;13.022;2023-07-20T22:14:42;19.80;99.90
14397;DHT22;50653;47.810;13.022;2023-07-20T22:17:09;19.70;99.90
14397;DHT22;50653;47.810;13.022;2023-07-20T22:19:36;19.80;99.90
14397;DHT22;50653;47.810;13.022;2023-07-20T22:22:02;19.80;99.90
14397;DHT22;50653;47.810;13.022;2023-07-20T22:24:31;19.80;99.90
14397;DHT22;50653;47.810;13.022;2023-07-20T22:26:57;19.80;99.90
14397;DHT22;50653;47.810;13.022;2023-07-20T22:29:22;19.80;99.90
14397;DHT22;50653;47.810;13.022;2023-07-20T22:31:49;19.80;99.90
14397;DHT22;50653;47.810;13.022;2023-07-20T22:34:15;19.80;99.90
14397;DHT22;50653;47.810;13.022;2023-07-20T22:36:41;19.80;99.90
14397;DHT22;50653;47.810;13.022;2023-07-20T22:39:06;19.80;99.90
14397;DHT22;50653;47.810;13.022;2023-07-20T22:41:32;19.80;99.90
14397;DHT22;50653;47.810;13.022;2023-07-20T22:43:58;19.70;99.90
14397;DHT22;50653;47.810;13.022;2023-07-20T22:46:23;19.70;99.90
14397;DHT22;50653;47.810;13.022;2023-07-20T22:48:49;19.70;99.90
14397;DHT22;50653;47.810;13.022;2023-07-20T22:51:15;19.60;99.90
14397;DHT22;50653;47.810;13.022;2023-07-20T22:53:40;19.60;99.90
14397;DHT22;50653;47.810;13.022;2023-07-20T22:56:06;19.60;99.90
14397;DHT22;50653;47.810;13.022;2023-07-20T22:58:32;19.60;99.90
14397;DHT22;50653;47.810;13.022;2023-07-20T23:00:59;19.60;99.90
14397;DHT22;50653;47.810;13.022;2023-07-20T23:03:25;19.50;99.90
14397;DHT22;50653;47.810;13.022;2023-07-20T23:05:51;19.50;99.90
14397;DHT22;50653;47.810;13.022;2023-07-20T23:08:17;19.50;99.90
14397;DHT22;50653;47.810;13.022;2023-07-20T23:10:43;19.50;99.90
14397;DHT22;50653;47.810;13.022;2023-07-20T23:13:08;19.50;99.90
14397;DHT22;50653;47.810;13.022;2023-07-20T23:15:34;19.40;99.90
14397;DHT22;50653;47.810;13.022;2023-07-20T23:18:01;19.40;99.90
14397;DHT22;50653;47.810;13.022;2023-07-20T23:20:27;19.40;99.90
14397;DHT22;50653;47.810;13.022;2023-07-20T23:22:53;19.40;99.90